createdAt,value
2017-05-17T00:00:43.295Z,1023.01
2017-05-17T00:01:53.406Z,1023.02
2017-05-17T00:03:03.590Z,1023.01
2017-05-17T00:04:13.679Z,1022.99
2017-05-17T00:05:24.548Z,1023
2017-05-17T00:06:34.762Z,1022.99
2017-05-17T00:07:45.789Z,1022.98
2017-05-17T00:08:57.602Z,1022.96
2017-05-17T00:10:08.480Z,1022.97
2017-05-17T00:11:19.225Z,1022.96
2017-05-17T00:12:29.550Z,1022.93
2017-05-17T00:13:38.604Z,1022.9
2017-05-17T00:14:47.569Z,1022.9
2017-05-17T00:15:57.170Z,1022.88
2017-05-17T00:17:06.132Z,1022.86
2017-05-17T00:18:15.092Z,1022.85
2017-05-17T00:19:24.052Z,1022.88
2017-05-17T00:20:33.020Z,1022.9
2017-05-17T00:21:42.333Z,1022.9
2017-05-17T00:22:51.297Z,1022.84
2017-05-17T00:24:00.358Z,1022.85
2017-05-17T00:25:09.318Z,1022.85
2017-05-17T00:26:18.282Z,1022.82
2017-05-17T00:27:28.148Z,1022.84
2017-05-17T00:28:37.116Z,1022.84
2017-05-17T00:29:46.084Z,1022.84
2017-05-17T00:30:55.049Z,1022.8
2017-05-17T00:32:04.011Z,1022.82
2017-05-17T00:33:13.323Z,1022.84
2017-05-17T00:34:22.288Z,1022.83
2017-05-17T00:35:31.256Z,1022.82
2017-05-17T00:36:40.219Z,1022.81
2017-05-17T00:37:49.184Z,1022.81
2017-05-17T00:38:58.454Z,1022.79
2017-05-17T00:40:07.417Z,1022.79
2017-05-17T00:41:16.377Z,1022.77
2017-05-17T00:42:25.341Z,1022.75
2017-05-17T00:43:34.310Z,1022.77
2017-05-17T00:44:43.569Z,1022.75
2017-05-17T00:45:52.535Z,1022.79
2017-05-17T00:47:01.496Z,1022.78
2017-05-17T00:48:10.460Z,1022.73
2017-05-17T00:49:19.511Z,1022.77
2017-05-17T00:50:28.878Z,1022.71
2017-05-17T00:51:37.922Z,1022.75
2017-05-17T00:52:46.885Z,1022.77
2017-05-17T00:53:55.848Z,1022.76
2017-05-17T00:55:04.818Z,1022.75
2017-05-17T00:56:14.028Z,1022.72
2017-05-17T00:57:23.081Z,1022.74
2017-05-17T00:58:32.127Z,1022.75
2017-05-17T00:59:41.091Z,1022.73
2017-05-17T01:00:50.140Z,1022.72
2017-05-17T01:01:59.353Z,1022.72
2017-05-17T01:03:08.313Z,1022.75
2017-05-17T01:04:17.599Z,1022.73
2017-05-17T01:05:26.568Z,1022.7
2017-05-17T01:06:35.533Z,1022.72
2017-05-17T01:07:44.796Z,1022.7
2017-05-17T01:08:53.847Z,1022.65
2017-05-17T01:10:02.820Z,1022.65
2017-05-17T01:11:11.788Z,1022.61
2017-05-17T01:12:20.751Z,1022.59
2017-05-17T01:13:30.015Z,1022.6
2017-05-17T01:14:38.976Z,1022.58
2017-05-17T01:15:47.943Z,1022.56
2017-05-17T01:16:57.227Z,1022.54
2017-05-17T01:18:06.189Z,1022.57
2017-05-17T01:19:15.445Z,1022.57
2017-05-17T01:20:24.408Z,1022.53
2017-05-17T01:21:33.369Z,1022.52
2017-05-17T01:22:42.329Z,1022.52
2017-05-17T01:23:51.293Z,1022.52
2017-05-17T01:25:00.556Z,1022.51
2017-05-17T01:26:09.607Z,1022.51
2017-05-17T01:27:18.574Z,1022.49
2017-05-17T01:28:27.625Z,1022.51
2017-05-17T01:29:36.587Z,1022.48
2017-05-17T01:30:45.847Z,1022.43
2017-05-17T01:31:54.894Z,1022.44
2017-05-17T01:33:03.857Z,1022.41
2017-05-17T01:34:12.905Z,1022.44
2017-05-17T01:35:22.196Z,1022.41
2017-05-17T01:36:31.461Z,1022.41
2017-05-17T01:37:40.429Z,1022.39
2017-05-17T01:38:49.393Z,1022.36
2017-05-17T01:39:58.357Z,1022.32
2017-05-17T01:41:07.320Z,1022.33
2017-05-17T01:42:16.581Z,1022.32
2017-05-17T01:43:25.542Z,1022.27
2017-05-17T01:44:34.834Z,1022.25
2017-05-17T01:45:43.797Z,1022.25
2017-05-17T01:46:52.761Z,1022.28
2017-05-17T01:48:02.027Z,1022.23
2017-05-17T01:49:11.084Z,1022.29
2017-05-17T01:50:20.039Z,1022.23
2017-05-17T01:51:29.002Z,1022.2
2017-05-17T01:52:38.058Z,1022.21
2017-05-17T01:53:47.337Z,1022.2
2017-05-17T01:54:56.298Z,1022.21
2017-05-17T01:56:05.260Z,1022.2
2017-05-17T01:57:14.220Z,1022.18
2017-05-17T01:58:23.191Z,1022.16
2017-05-17T01:59:32.402Z,1022.16
2017-05-17T02:00:41.370Z,1022.15
2017-05-17T02:01:50.333Z,1022.13
2017-05-17T02:02:59.313Z,1022.16
2017-05-17T02:04:08.282Z,1022.14
2017-05-17T02:05:17.549Z,1022.13
2017-05-17T02:06:26.508Z,1022.12
2017-05-17T02:07:35.469Z,1022.11
2017-05-17T02:08:44.436Z,1022.1
2017-05-17T02:09:53.402Z,1022.1
2017-05-17T02:11:02.666Z,1022.07
2017-05-17T02:12:11.640Z,1022.08
2017-05-17T02:13:20.690Z,1022.1
2017-05-17T02:14:29.651Z,1022.08
2017-05-17T02:15:38.701Z,1022.09
2017-05-17T02:16:47.967Z,1022.04
2017-05-17T02:17:56.932Z,1022.07
2017-05-17T02:19:05.895Z,1022.05
2017-05-17T02:20:14.861Z,1022.05
2017-05-17T02:21:23.822Z,1022.04
2017-05-17T02:22:33.175Z,1022.03
2017-05-17T02:23:42.458Z,1022.06
2017-05-17T02:24:51.466Z,1022.07
2017-05-17T02:26:00.519Z,1022.04
2017-05-17T02:27:09.485Z,1022.03
2017-05-17T02:28:18.747Z,1022.01
2017-05-17T02:29:27.801Z,1022.04
2017-05-17T02:30:36.765Z,1022.04
2017-05-17T02:31:45.811Z,1022.03
2017-05-17T02:32:55.109Z,1022.03
2017-05-17T02:34:04.378Z,1022.01
2017-05-17T02:35:13.340Z,1022.03
2017-05-17T02:36:22.435Z,1022.02
2017-05-17T02:37:31.403Z,1022
2017-05-17T02:38:40.366Z,1022.02
2017-05-17T02:39:49.723Z,1021.96
2017-05-17T02:40:59.352Z,1022
2017-05-17T02:42:08.316Z,1021.96
2017-05-17T02:43:17.280Z,1021.96
2017-05-17T02:44:26.245Z,1021.98
2017-05-17T02:45:35.505Z,1021.96
2017-05-17T02:46:44.474Z,1021.95
2017-05-17T02:47:53.437Z,1021.98
2017-05-17T02:49:02.485Z,1021.93
2017-05-17T02:50:11.538Z,1021.96
2017-05-17T02:51:20.933Z,1021.92
2017-05-17T02:52:29.987Z,1021.95
2017-05-17T02:53:38.952Z,1021.95
2017-05-17T02:54:47.922Z,1021.93
2017-05-17T02:55:56.891Z,1021.94
2017-05-17T02:57:06.154Z,1021.92
2017-05-17T02:58:15.120Z,1021.93
2017-05-17T02:59:24.082Z,1021.88
2017-05-17T03:00:33.040Z,1021.91
2017-05-17T03:01:42.004Z,1021.91
2017-05-17T03:02:51.218Z,1021.96
2017-05-17T03:04:00.181Z,1021.93
2017-05-17T03:05:09.145Z,1021.88
2017-05-17T03:06:18.476Z,1021.91
2017-05-17T03:07:27.436Z,1021.88
2017-05-17T03:08:36.697Z,1021.88
2017-05-17T03:09:45.775Z,1021.92
2017-05-17T03:10:54.742Z,1021.9
2017-05-17T03:12:03.711Z,1021.92
2017-05-17T03:13:12.678Z,1021.87
2017-05-17T03:14:21.944Z,1021.86
2017-05-17T03:15:30.907Z,1021.85
2017-05-17T03:16:39.956Z,1021.81
2017-05-17T03:17:48.920Z,1021.82
2017-05-17T03:18:57.889Z,1021.84
2017-05-17T03:20:06.853Z,1021.79
2017-05-17T03:21:15.815Z,1021.82
2017-05-17T03:22:24.784Z,1021.82
2017-05-17T03:23:33.746Z,1021.81
2017-05-17T03:24:42.713Z,1021.78
2017-05-17T03:25:51.677Z,1021.81
2017-05-17T03:27:00.637Z,1021.77
2017-05-17T03:28:09.595Z,1021.81
2017-05-17T03:29:18.644Z,1021.79
2017-05-17T03:30:27.677Z,1021.81
2017-05-17T03:31:36.690Z,1021.82
2017-05-17T03:32:45.743Z,1021.8
2017-05-17T03:33:54.709Z,1021.84
2017-05-17T03:35:03.680Z,1021.82
2017-05-17T03:36:12.646Z,1021.83
2017-05-17T03:37:21.658Z,1021.84
2017-05-17T03:38:30.627Z,1021.83
2017-05-17T03:39:39.590Z,1021.81
2017-05-17T03:40:48.558Z,1021.84
2017-05-17T03:41:57.520Z,1021.79
2017-05-17T03:43:06.478Z,1021.76
2017-05-17T03:44:15.761Z,1021.75
2017-05-17T03:45:24.808Z,1021.76
2017-05-17T03:46:33.768Z,1021.76
2017-05-17T03:47:42.733Z,1021.76
2017-05-17T03:48:51.742Z,1021.76
2017-05-17T03:50:00.788Z,1021.76
2017-05-17T03:51:09.752Z,1021.75
2017-05-17T03:52:18.712Z,1021.79
2017-05-17T03:53:27.682Z,1021.76
2017-05-17T03:54:36.694Z,1021.78
2017-05-17T03:55:45.658Z,1021.74
2017-05-17T03:56:54.708Z,1021.77
2017-05-17T03:58:03.669Z,1021.71
2017-05-17T03:59:12.632Z,1021.73
2017-05-17T04:00:21.676Z,1021.73
2017-05-17T04:01:30.959Z,1021.69
2017-05-17T04:02:39.925Z,1021.73
2017-05-17T04:03:49.022Z,1021.68
2017-05-17T04:04:57.987Z,1021.69
2017-05-17T04:06:06.955Z,1021.7
2017-05-17T04:07:16.241Z,1021.69
2017-05-17T04:08:25.295Z,1021.7
2017-05-17T04:09:34.265Z,1021.69
2017-05-17T04:10:43.273Z,1021.69
2017-05-17T04:11:52.241Z,1021.68
2017-05-17T04:13:01.201Z,1021.66
2017-05-17T04:14:10.166Z,1021.66
2017-05-17T04:15:19.136Z,1021.66
2017-05-17T04:16:28.152Z,1021.65
2017-05-17T04:17:37.169Z,1021.64
2017-05-17T04:18:46.134Z,1021.67
2017-05-17T04:19:55.098Z,1021.63
2017-05-17T04:21:04.147Z,1021.66
2017-05-17T04:22:13.111Z,1021.63
2017-05-17T04:23:22.327Z,1021.65
2017-05-17T04:24:31.289Z,1021.64
2017-05-17T04:25:40.247Z,1021.62
2017-05-17T04:26:49.294Z,1021.64
2017-05-17T04:27:58.258Z,1021.62
2017-05-17T04:29:07.523Z,1021.59
2017-05-17T04:30:16.814Z,1021.59
2017-05-17T04:31:25.869Z,1021.57
2017-05-17T04:32:34.915Z,1021.56
2017-05-17T04:33:43.881Z,1021.51
2017-05-17T04:34:53.152Z,1021.52
2017-05-17T04:36:02.207Z,1021.49
2017-05-17T04:37:11.173Z,1021.51
2017-05-17T04:38:20.224Z,1021.48
2017-05-17T04:39:29.186Z,1021.45
2017-05-17T04:40:38.393Z,1021.46
2017-05-17T04:41:47.443Z,1021.42
2017-05-17T04:42:56.407Z,1021.44
2017-05-17T04:44:05.370Z,1021.4
2017-05-17T04:45:14.336Z,1021.44
2017-05-17T04:46:23.603Z,1021.44
2017-05-17T04:47:32.571Z,1021.4
2017-05-17T04:48:41.593Z,1021.41
2017-05-17T04:49:50.555Z,1021.46
2017-05-17T04:50:59.600Z,1021.46
2017-05-17T04:52:08.817Z,1021.46
2017-05-17T04:53:17.780Z,1021.44
2017-05-17T04:54:26.753Z,1021.44
2017-05-17T04:55:35.722Z,1021.44
2017-05-17T04:56:44.731Z,1021.47
2017-05-17T04:57:53.996Z,1021.44
2017-05-17T04:59:02.958Z,1021.47
2017-05-17T05:00:12.256Z,1021.49
2017-05-17T05:01:21.213Z,1021.46
2017-05-17T05:02:30.179Z,1021.42
2017-05-17T05:03:39.412Z,1021.43
2017-05-17T05:04:48.371Z,1021.41
2017-05-17T05:05:57.331Z,1021.44
2017-05-17T05:07:06.295Z,1021.42
2017-05-17T05:08:15.315Z,1021.43
2017-05-17T05:09:24.578Z,1021.39
2017-05-17T05:10:33.545Z,1021.43
2017-05-17T05:11:42.501Z,1021.41
2017-05-17T05:12:51.464Z,1021.39
2017-05-17T05:14:00.427Z,1021.46
2017-05-17T05:15:09.691Z,1021.41
2017-05-17T05:16:18.661Z,1021.41
2017-05-17T05:17:27.622Z,1021.45
2017-05-17T05:18:36.634Z,1021.4
2017-05-17T05:19:45.596Z,1021.46
2017-05-17T05:20:54.814Z,1021.44
2017-05-17T05:22:04.451Z,1021.4
2017-05-17T05:23:13.416Z,1021.4
2017-05-17T05:24:22.377Z,1021.41
2017-05-17T05:25:31.360Z,1021.41
2017-05-17T05:26:40.621Z,1021.43
2017-05-17T05:27:49.671Z,1021.4
2017-05-17T05:28:58.641Z,1021.38
2017-05-17T05:30:07.603Z,1021.4
2017-05-17T05:31:16.561Z,1021.42
2017-05-17T05:32:25.832Z,1021.36
2017-05-17T05:33:34.897Z,1021.37
2017-05-17T05:34:43.950Z,1021.35
2017-05-17T05:35:52.917Z,1021.37
2017-05-17T05:37:01.941Z,1021.37
2017-05-17T05:38:11.262Z,1021.37
2017-05-17T05:39:20.224Z,1021.4
2017-05-17T05:40:29.183Z,1021.43
2017-05-17T05:41:38.145Z,1021.41
2017-05-17T05:42:47.195Z,1021.4
2017-05-17T05:43:56.460Z,1021.37
2017-05-17T05:45:05.428Z,1021.42
2017-05-17T05:46:14.399Z,1021.41
2017-05-17T05:47:23.361Z,1021.42
2017-05-17T05:48:32.410Z,1021.41
2017-05-17T05:49:41.672Z,1021.45
2017-05-17T05:50:50.721Z,1021.42
2017-05-17T05:51:59.681Z,1021.44
2017-05-17T05:53:08.645Z,1021.45
2017-05-17T05:54:17.698Z,1021.45
2017-05-17T05:55:26.915Z,1021.42
2017-05-17T05:56:35.875Z,1021.43
2017-05-17T05:57:44.842Z,1021.42
2017-05-17T05:58:53.812Z,1021.41
2017-05-17T06:00:02.778Z,1021.41
2017-05-17T06:01:12.075Z,1021.42
2017-05-17T06:02:21.038Z,1021.43
2017-05-17T06:03:30.006Z,1021.42
2017-05-17T06:04:38.976Z,1021.45
2017-05-17T06:05:47.941Z,1021.46
2017-05-17T06:06:57.253Z,1021.45
2017-05-17T06:08:06.213Z,1021.47
2017-05-17T06:09:15.172Z,1021.47
2017-05-17T06:10:24.281Z,1021.48
2017-05-17T06:11:33.241Z,1021.48
2017-05-17T06:12:42.453Z,1021.42
2017-05-17T06:13:51.412Z,1021.41
2017-05-17T06:15:00.460Z,1021.38
2017-05-17T06:16:09.423Z,1021.44
2017-05-17T06:17:18.382Z,1021.39
2017-05-17T06:18:27.595Z,1021.39
2017-05-17T06:19:36.732Z,1021.4
2017-05-17T06:20:45.699Z,1021.4
2017-05-17T06:21:54.666Z,1021.49
2017-05-17T06:23:03.635Z,1021.49
2017-05-17T06:24:13.210Z,1021.46
2017-05-17T06:25:22.594Z,1021.45
2017-05-17T06:26:31.594Z,1021.42
2017-05-17T06:27:40.641Z,1021.44
2017-05-17T06:28:49.765Z,1021.41
2017-05-17T06:29:59.120Z,1021.4
2017-05-17T06:31:08.227Z,1021.34
2017-05-17T06:32:17.479Z,1021.35
2017-05-17T06:33:26.521Z,1021.35
2017-05-17T06:34:35.512Z,1021.34
2017-05-17T06:35:44.879Z,1021.34
2017-05-17T06:36:53.847Z,1021.29
2017-05-17T06:38:02.930Z,1021.33
2017-05-17T06:39:12.428Z,1021.31
2017-05-17T06:40:21.394Z,1021.29
2017-05-17T06:41:30.816Z,1021.31
2017-05-17T06:42:39.787Z,1021.29
2017-05-17T06:43:48.755Z,1021.29
2017-05-17T06:44:58.219Z,1021.27
2017-05-17T06:46:07.577Z,1021.26
2017-05-17T06:47:18.508Z,1021.3
2017-05-17T06:48:30.888Z,1021.28
2017-05-17T06:49:41.920Z,1021.24
2017-05-17T06:50:51.649Z,1021.27
2017-05-17T06:52:01.196Z,1021.24
2017-05-17T06:53:11.279Z,1021.22
2017-05-17T06:54:21.234Z,1021.24
2017-05-17T06:55:30.653Z,1021.25
2017-05-17T06:56:40.031Z,1021.23
2017-05-17T06:57:49.682Z,1021.31
2017-05-17T06:58:59.390Z,1021.24
2017-05-17T07:00:08.798Z,1021.29
2017-05-17T07:01:18.548Z,1021.27
2017-05-17T07:02:28.579Z,1021.24
2017-05-17T07:03:37.978Z,1021.25
2017-05-17T07:04:47.744Z,1021.22
2017-05-17T07:05:57.427Z,1021.22
2017-05-17T07:07:07.075Z,1021.26
2017-05-17T07:08:16.689Z,1021.18
2017-05-17T07:09:26.436Z,1021.22
2017-05-17T07:10:36.212Z,1021.2
2017-05-17T07:11:45.907Z,1021.17
2017-05-17T07:12:55.330Z,1021.18
2017-05-17T07:14:04.686Z,1021.14
2017-05-17T07:15:14.193Z,1021.17
2017-05-17T07:16:24.294Z,1021.13
2017-05-17T07:17:37.246Z,1021.11
2017-05-17T07:18:46.526Z,1021.1
2017-05-17T07:19:55.907Z,1021.07
2017-05-17T07:21:05.832Z,1021.04
2017-05-17T07:22:15.552Z,1021.06
2017-05-17T07:23:25.163Z,1021.07
2017-05-17T07:24:34.782Z,1021.05
2017-05-17T07:25:44.180Z,1021.06
2017-05-17T07:26:53.604Z,1021.01
2017-05-17T07:28:03.609Z,1021.02
2017-05-17T07:29:12.966Z,1021
2017-05-17T07:30:22.270Z,1021.01
2017-05-17T07:31:31.670Z,1021.03
2017-05-17T07:32:41.416Z,1020.97
2017-05-17T07:33:51.419Z,1021
2017-05-17T07:35:00.935Z,1021
2017-05-17T07:36:10.268Z,1020.99
2017-05-17T07:37:19.772Z,1020.97
2017-05-17T07:38:29.061Z,1020.94
2017-05-17T07:39:38.970Z,1020.94
2017-05-17T07:40:48.705Z,1020.91
2017-05-17T07:41:57.998Z,1020.91
2017-05-17T07:43:06.981Z,1020.92
2017-05-17T07:44:16.061Z,1020.86
2017-05-17T07:45:25.282Z,1020.84
2017-05-17T07:46:34.338Z,1020.83
2017-05-17T07:47:43.312Z,1020.84
2017-05-17T07:48:52.287Z,1020.84
2017-05-17T07:50:01.250Z,1020.83
2017-05-17T07:51:10.517Z,1020.81
2017-05-17T07:52:19.566Z,1020.81
2017-05-17T07:53:28.531Z,1020.79
2017-05-17T07:54:37.492Z,1020.78
2017-05-17T07:55:46.461Z,1020.8
2017-05-17T07:56:55.724Z,1020.75
2017-05-17T07:58:04.713Z,1020.73
2017-05-17T07:59:13.677Z,1020.72
2017-05-17T08:00:22.644Z,1020.72
2017-05-17T08:01:31.610Z,1020.73
2017-05-17T08:02:40.873Z,1020.75
2017-05-17T08:03:49.848Z,1020.73
2017-05-17T08:04:58.823Z,1020.76
2017-05-17T08:06:07.960Z,1020.76
2017-05-17T08:07:16.982Z,1020.76
2017-05-17T08:08:26.257Z,1020.73
2017-05-17T08:09:35.226Z,1020.74
2017-05-17T08:10:44.271Z,1020.74
2017-05-17T08:11:53.228Z,1020.74
2017-05-17T08:13:02.194Z,1020.76
2017-05-17T08:14:11.407Z,1020.77
2017-05-17T08:15:20.383Z,1020.78
2017-05-17T08:16:29.350Z,1020.75
2017-05-17T08:17:38.315Z,1020.69
2017-05-17T08:18:47.370Z,1020.69
2017-05-17T08:19:56.635Z,1020.74
2017-05-17T08:21:05.598Z,1020.71
2017-05-17T08:22:14.567Z,1020.72
2017-05-17T08:23:23.531Z,1020.71
2017-05-17T08:24:32.500Z,1020.71
2017-05-17T08:25:41.767Z,1020.73
2017-05-17T08:26:50.729Z,1020.71
2017-05-17T08:27:59.692Z,1020.67
2017-05-17T08:29:08.670Z,1020.65
2017-05-17T08:30:17.635Z,1020.64
2017-05-17T08:31:26.851Z,1020.65
2017-05-17T08:32:35.815Z,1020.64
2017-05-17T08:33:44.783Z,1020.63
2017-05-17T08:34:53.754Z,1020.59
2017-05-17T08:36:02.865Z,1020.61
2017-05-17T08:37:12.133Z,1020.56
2017-05-17T08:38:21.105Z,1020.57
2017-05-17T08:39:30.073Z,1020.56
2017-05-17T08:40:39.126Z,1020.56
2017-05-17T08:41:48.094Z,1020.5
2017-05-17T08:42:57.359Z,1020.49
2017-05-17T08:44:06.321Z,1020.52
2017-05-17T08:45:15.383Z,1020.53
2017-05-17T08:46:24.345Z,1020.51
2017-05-17T08:47:33.313Z,1020.5
2017-05-17T08:48:42.579Z,1020.49
2017-05-17T08:49:51.551Z,1020.47
2017-05-17T08:51:00.522Z,1020.46
2017-05-17T08:52:09.489Z,1020.44
2017-05-17T08:53:18.542Z,1020.46
2017-05-17T08:54:27.763Z,1020.41
2017-05-17T08:55:36.738Z,1020.43
2017-05-17T08:56:45.708Z,1020.42
2017-05-17T08:57:54.679Z,1020.36
2017-05-17T08:59:03.641Z,1020.39
2017-05-17T09:00:12.910Z,1020.31
2017-05-17T09:01:22.003Z,1020.33
2017-05-17T09:02:30.972Z,1020.31
2017-05-17T09:03:39.940Z,1020.34
2017-05-17T09:04:48.906Z,1020.26
2017-05-17T09:05:58.193Z,1020.26
2017-05-17T09:07:07.479Z,1020.23
2017-05-17T09:08:16.446Z,1020.25
2017-05-17T09:09:25.421Z,1020.24
2017-05-17T09:10:34.392Z,1020.2
2017-05-17T09:11:43.666Z,1020.2
2017-05-17T09:12:52.634Z,1020.23
2017-05-17T09:14:01.695Z,1020.23
2017-05-17T09:15:10.982Z,1020.19
2017-05-17T09:16:19.979Z,1020.18
2017-05-17T09:17:29.194Z,1020.14
2017-05-17T09:18:38.257Z,1020.13
2017-05-17T09:19:47.228Z,1020.14
2017-05-17T09:20:56.850Z,1020.07
2017-05-17T09:22:05.812Z,1020.07
2017-05-17T09:23:15.088Z,1020.02
2017-05-17T09:24:24.055Z,1020
2017-05-17T09:25:33.022Z,1019.95
2017-05-17T09:26:41.984Z,1019.98
2017-05-17T09:27:51.288Z,1019.98
2017-05-17T09:29:00.511Z,1019.96
2017-05-17T09:30:09.477Z,1019.91
2017-05-17T09:31:18.494Z,1019.92
2017-05-17T09:32:27.458Z,1019.9
2017-05-17T09:33:36.478Z,1019.91
2017-05-17T09:34:45.747Z,1019.9
2017-05-17T09:35:54.718Z,1019.91
2017-05-17T09:37:03.684Z,1019.83
2017-05-17T09:38:12.648Z,1019.86
2017-05-17T09:39:21.952Z,1019.82
2017-05-17T09:40:31.171Z,1019.83
2017-05-17T09:41:40.135Z,1019.81
2017-05-17T09:42:49.097Z,1019.85
2017-05-17T09:43:58.064Z,1019.85
2017-05-17T09:45:07.029Z,1019.82
2017-05-17T09:46:16.286Z,1019.8
2017-05-17T09:47:25.575Z,1019.79
2017-05-17T09:48:34.541Z,1019.77
2017-05-17T09:49:43.512Z,1019.76
2017-05-17T09:50:52.476Z,1019.79
2017-05-17T09:52:01.791Z,1019.74
2017-05-17T09:53:10.768Z,1019.72
2017-05-17T09:54:19.734Z,1019.72
2017-05-17T09:55:28.705Z,1019.71
2017-05-17T09:56:37.669Z,1019.71
2017-05-17T09:57:46.939Z,1019.73
2017-05-17T09:58:55.911Z,1019.71
2017-05-17T10:00:04.881Z,1019.69
2017-05-17T10:01:13.853Z,1019.64
2017-05-17T10:02:22.922Z,1019.68
2017-05-17T10:03:32.135Z,1019.67
2017-05-17T10:04:41.105Z,1019.63
2017-05-17T10:05:50.071Z,1019.67
2017-05-17T10:06:59.042Z,1019.67
2017-05-17T10:08:08.093Z,1019.62
2017-05-17T10:09:17.362Z,1019.64
2017-05-17T10:10:26.331Z,1019.59
2017-05-17T10:11:35.305Z,1019.58
2017-05-17T10:12:44.279Z,1019.55
2017-05-17T10:13:53.248Z,1019.62
2017-05-17T10:15:02.521Z,1019.57
2017-05-17T10:16:11.487Z,1019.57
2017-05-17T10:17:20.453Z,1019.49
2017-05-17T10:18:29.418Z,1019.54
2017-05-17T10:19:38.722Z,1019.51
2017-05-17T10:20:47.942Z,1019.48
2017-05-17T10:21:56.907Z,1019.46
2017-05-17T10:23:05.873Z,1019.44
2017-05-17T10:24:14.935Z,1019.42
2017-05-17T10:25:23.986Z,1019.42
2017-05-17T10:26:33.342Z,1019.39
2017-05-17T10:27:42.303Z,1019.41
2017-05-17T10:28:51.459Z,1019.44
2017-05-17T10:30:00.424Z,1019.43
2017-05-17T10:31:09.397Z,1019.45
2017-05-17T10:32:18.991Z,1019.4
2017-05-17T10:33:28.043Z,1019.32
2017-05-17T10:34:37.016Z,1019.29
2017-05-17T10:35:45.978Z,1019.35
2017-05-17T10:36:54.948Z,1019.34
2017-05-17T10:38:04.171Z,1019.33
2017-05-17T10:39:13.135Z,1019.32
2017-05-17T10:40:22.103Z,1019.29
2017-05-17T10:41:31.215Z,1019.31
2017-05-17T10:42:40.202Z,1019.27
2017-05-17T10:43:49.467Z,1019.2
2017-05-17T10:44:58.433Z,1019.21
2017-05-17T10:46:07.404Z,1019.21
2017-05-17T10:47:16.367Z,1019.18
2017-05-17T10:48:25.335Z,1019.16
2017-05-17T10:49:34.555Z,1019.16
2017-05-17T10:50:43.525Z,1019.19
2017-05-17T10:51:52.495Z,1019.14
2017-05-17T10:53:01.793Z,1019.14
2017-05-17T10:54:10.760Z,1019.12
2017-05-17T10:55:19.974Z,1019.09
2017-05-17T10:56:28.938Z,1019.08
2017-05-17T10:57:37.908Z,1019.12
2017-05-17T10:58:46.928Z,1019.03
2017-05-17T10:59:55.891Z,1019.09
2017-05-17T11:01:05.200Z,1019.03
2017-05-17T11:02:14.176Z,1019.03
2017-05-17T11:03:23.139Z,1019.05
2017-05-17T11:04:32.433Z,1019.02
2017-05-17T11:05:41.397Z,1018.96
2017-05-17T11:06:50.616Z,1018.92
2017-05-17T11:07:59.583Z,1018.91
2017-05-17T11:09:08.547Z,1018.9
2017-05-17T11:10:17.605Z,1018.89
2017-05-17T11:11:26.576Z,1018.88
2017-05-17T11:12:35.799Z,1018.84
2017-05-17T11:13:44.765Z,1018.82
2017-05-17T11:14:53.730Z,1018.86
2017-05-17T11:16:02.698Z,1018.77
2017-05-17T11:17:11.666Z,1018.79
2017-05-17T11:18:20.940Z,1018.77
2017-05-17T11:19:29.911Z,1018.78
2017-05-17T11:20:38.879Z,1018.77
2017-05-17T11:21:47.940Z,1018.77
2017-05-17T11:22:56.905Z,1018.73
2017-05-17T11:24:06.122Z,1018.75
2017-05-17T11:25:15.093Z,1018.7
2017-05-17T11:26:24.064Z,1018.7
2017-05-17T11:27:33.030Z,1018.7
2017-05-17T11:28:41.992Z,1018.7
2017-05-17T11:29:51.266Z,1018.68
2017-05-17T11:31:00.558Z,1018.68
2017-05-17T11:32:09.529Z,1018.74
2017-05-17T11:33:18.586Z,1018.75
2017-05-17T11:34:27.556Z,1018.68
2017-05-17T11:35:36.774Z,1018.63
2017-05-17T11:36:45.743Z,1018.61
2017-05-17T11:37:54.800Z,1018.6
2017-05-17T11:39:03.771Z,1018.64
2017-05-17T11:40:12.832Z,1018.57
2017-05-17T11:41:22.136Z,1018.59
2017-05-17T11:42:31.105Z,1018.6
2017-05-17T11:43:40.082Z,1018.57
2017-05-17T11:44:49.140Z,1018.56
2017-05-17T11:45:58.111Z,1018.52
2017-05-17T11:47:07.463Z,1018.48
2017-05-17T11:48:16.431Z,1018.47
2017-05-17T11:49:25.399Z,1018.45
2017-05-17T11:50:34.373Z,1018.43
2017-05-17T11:51:43.349Z,1018.41
2017-05-17T11:52:52.616Z,1018.44
2017-05-17T11:54:01.585Z,1018.43
2017-05-17T11:55:10.551Z,1018.36
2017-05-17T11:56:19.516Z,1018.34
2017-05-17T11:57:28.492Z,1018.4
2017-05-17T11:58:37.764Z,1018.35
2017-05-17T11:59:46.738Z,1018.35
2017-05-17T12:00:55.706Z,1018.31
2017-05-17T12:02:04.677Z,1018.3
2017-05-17T12:03:13.815Z,1018.26
2017-05-17T12:04:23.088Z,1018.21
2017-05-17T12:05:32.056Z,1018.18
2017-05-17T12:06:41.025Z,1018.18
2017-05-17T12:07:50.000Z,1018.18
2017-05-17T12:08:58.970Z,1018.19
2017-05-17T12:10:08.240Z,1018.15
2017-05-17T12:11:17.291Z,1018.18
2017-05-17T12:12:26.259Z,1018.15
2017-05-17T12:13:35.224Z,1018.16
2017-05-17T12:14:44.519Z,1018.16
2017-05-17T12:15:53.752Z,1018.14
2017-05-17T12:17:02.815Z,1018.1
2017-05-17T12:18:11.786Z,1018.08
2017-05-17T12:19:20.752Z,1018.1
2017-05-17T12:20:29.722Z,1018.05
2017-05-17T12:21:38.939Z,1018.05
2017-05-17T12:22:47.912Z,1018.02
2017-05-17T12:23:57.203Z,1018.04
2017-05-17T12:25:06.173Z,1018.03
2017-05-17T12:26:15.145Z,1017.99
2017-05-17T12:27:24.408Z,1017.97
2017-05-17T12:28:33.430Z,1017.99
2017-05-17T12:29:42.402Z,1017.99
2017-05-17T12:30:51.452Z,1017.99
2017-05-17T12:32:00.424Z,1017.99
2017-05-17T12:33:09.694Z,1018.01
2017-05-17T12:34:18.670Z,1017.95
2017-05-17T12:35:27.974Z,1017.95
2017-05-17T12:36:36.944Z,1018
2017-05-17T12:37:45.911Z,1017.92
2017-05-17T12:38:55.180Z,1017.92
2017-05-17T12:40:04.153Z,1017.91
2017-05-17T12:41:13.127Z,1017.93
2017-05-17T12:42:22.098Z,1017.85
2017-05-17T12:43:31.069Z,1017.84
2017-05-17T12:44:40.340Z,1017.81
2017-05-17T12:45:49.398Z,1017.82
2017-05-17T12:46:58.365Z,1017.79
2017-05-17T12:48:07.332Z,1017.76
2017-05-17T12:49:16.302Z,1017.78
2017-05-17T12:50:25.574Z,1017.76
2017-05-17T12:51:34.542Z,1017.73
2017-05-17T12:52:43.511Z,1017.69
2017-05-17T12:53:52.492Z,1017.69
2017-05-17T12:55:01.512Z,1017.66
2017-05-17T12:56:10.781Z,1017.68
2017-05-17T12:57:19.744Z,1017.65
2017-05-17T12:58:28.718Z,1017.67
2017-05-17T12:59:37.687Z,1017.64
2017-05-17T13:00:46.653Z,1017.6
2017-05-17T13:01:55.918Z,1017.6
2017-05-17T13:03:04.886Z,1017.59
2017-05-17T13:04:13.854Z,1017.62
2017-05-17T13:05:22.834Z,1017.56
2017-05-17T13:06:31.803Z,1017.65
2017-05-17T13:07:41.020Z,1017.57
2017-05-17T13:08:49.988Z,1017.58
2017-05-17T13:09:59.287Z,1017.52
2017-05-17T13:11:08.253Z,1017.44
2017-05-17T13:12:17.216Z,1017.43
2017-05-17T13:13:26.579Z,1017.47
2017-05-17T13:14:35.546Z,1017.45
2017-05-17T13:15:44.515Z,1017.35
2017-05-17T13:16:53.481Z,1017.35
2017-05-17T13:18:02.451Z,1017.36
2017-05-17T13:19:11.723Z,1017.28
2017-05-17T13:20:20.701Z,1017.37
2017-05-17T13:21:29.753Z,1017.29
2017-05-17T13:22:38.811Z,1017.3
2017-05-17T13:23:47.782Z,1017.28
2017-05-17T13:24:57.015Z,1017.3
2017-05-17T13:26:05.985Z,1017.27
2017-05-17T13:27:15.039Z,1017.26
2017-05-17T13:28:24.096Z,1017.21
2017-05-17T13:29:33.061Z,1017.17
2017-05-17T13:30:42.281Z,1017.22
2017-05-17T13:31:51.253Z,1017.2
2017-05-17T13:33:00.236Z,1017.21
2017-05-17T13:34:09.207Z,1017.17
2017-05-17T13:35:18.193Z,1017.14
2017-05-17T13:36:27.455Z,1017.12
2017-05-17T13:37:36.432Z,1017.07
2017-05-17T13:38:45.400Z,1017.1
2017-05-17T13:39:54.699Z,1017.08
2017-05-17T13:41:03.667Z,1017.03
2017-05-17T13:42:12.933Z,1016.95
2017-05-17T13:43:21.898Z,1016.94
2017-05-17T13:44:30.865Z,1016.93
2017-05-17T13:45:39.835Z,1016.96
2017-05-17T13:46:48.807Z,1016.97
2017-05-17T13:47:58.025Z,1016.94
2017-05-17T13:49:06.992Z,1016.92
2017-05-17T13:50:15.957Z,1016.94
2017-05-17T13:51:24.920Z,1016.96
2017-05-17T13:52:33.897Z,1016.9
2017-05-17T13:53:43.164Z,1016.94
2017-05-17T13:54:52.128Z,1016.88
2017-05-17T13:56:01.105Z,1016.9
2017-05-17T13:57:10.159Z,1016.89
2017-05-17T13:58:19.175Z,1016.85
2017-05-17T13:59:28.534Z,1016.88